createdAt,value
2022-11-28T00:01:47.257Z,98568.00
2022-11-28T00:04:18.218Z,98583.00
2022-11-28T00:06:50.564Z,98580.00
2022-11-28T00:09:21.926Z,98580.00
2022-11-28T00:11:52.808Z,98576.00
2022-11-28T00:14:23.747Z,98576.00
2022-11-28T00:16:54.623Z,98575.00
2022-11-28T00:19:25.482Z,98572.00
2022-11-28T00:21:56.477Z,98569.00
2022-11-28T00:24:27.479Z,98567.00
2022-11-28T00:26:58.365Z,98565.00
2022-11-28T00:29:29.232Z,98562.00
2022-11-28T00:32:00.271Z,98569.00
2022-11-28T00:34:31.210Z,98568.00
2022-11-28T00:37:02.084Z,98571.00
2022-11-28T00:39:32.928Z,98573.00
2022-11-28T00:42:03.902Z,98572.00
2022-11-28T00:44:34.765Z,98572.00
2022-11-28T00:47:05.725Z,98572.00
2022-11-28T00:49:36.714Z,98558.00
2022-11-28T00:52:07.845Z,98567.00
2022-11-28T00:54:41.752Z,98554.00
2022-11-28T00:57:12.866Z,98541.00
2022-11-28T00:59:43.722Z,98556.00
2022-11-28T01:02:14.732Z,98557.00
2022-11-28T01:04:45.623Z,98562.00
2022-11-28T01:07:16.572Z,98560.00
2022-11-28T01:09:47.523Z,98558.00
2022-11-28T01:12:18.391Z,98548.00
2022-11-28T01:14:49.312Z,98539.00
2022-11-28T01:17:20.220Z,98554.00
2022-11-28T01:19:51.112Z,98531.00
2022-11-28T01:22:21.973Z,98531.00
2022-11-28T01:24:52.889Z,98520.00
2022-11-28T01:27:23.804Z,98521.00
2022-11-28T01:29:54.641Z,98520.00
2022-11-28T01:32:25.553Z,98526.00
2022-11-28T01:34:56.478Z,98534.00
2022-11-28T01:37:30.122Z,98529.00
2022-11-28T01:40:01.024Z,98534.00
2022-11-28T01:42:32.055Z,98545.00
2022-11-28T01:45:32.278Z,98537.00
2022-11-28T01:48:04.091Z,98541.00
2022-11-28T01:50:36.276Z,98529.00
2022-11-28T01:53:10.552Z,98531.00
2022-11-28T01:55:56.328Z,98535.00
2022-11-28T01:58:28.690Z,98525.00
2022-11-28T02:00:59.660Z,98524.00
2022-11-28T02:03:40.509Z,98510.00
2022-11-28T02:06:15.429Z,98511.00
2022-11-28T02:08:46.343Z,98508.00
2022-11-28T02:11:53.507Z,98501.00
2022-11-28T02:15:04.365Z,98514.00
2022-11-28T02:18:07.236Z,98498.00
2022-11-28T02:21:34.498Z,98495.00
2022-11-28T02:24:55.250Z,98483.00
2022-11-28T02:28:09.511Z,98477.00
2022-11-28T02:30:57.499Z,98473.00
2022-11-28T02:33:42.586Z,98464.00
2022-11-28T02:36:15.487Z,98451.00
2022-11-28T02:39:33.739Z,98453.00
2022-11-28T02:42:54.572Z,98442.00
2022-11-28T02:45:43.451Z,98434.00
2022-11-28T02:48:25.810Z,98438.00
2022-11-28T02:51:12.147Z,98432.00
2022-11-28T02:53:45.946Z,98450.00
2022-11-28T02:56:17.134Z,98446.00
2022-11-28T02:58:48.003Z,98439.00
2022-11-28T03:01:34.090Z,98445.00
2022-11-28T03:04:32.559Z,98451.00
2022-11-28T03:07:25.140Z,98431.00
2022-11-28T03:10:40.930Z,98396.00
2022-11-28T03:13:40.844Z,98425.00
2022-11-28T03:16:22.704Z,98408.00
2022-11-28T03:19:19.940Z,98417.00
2022-11-28T03:22:19.567Z,98423.00
2022-11-28T03:25:06.531Z,98411.00
2022-11-28T03:27:48.294Z,98401.00
2022-11-28T03:30:30.786Z,98404.00
2022-11-28T03:33:04.053Z,98423.00
2022-11-28T03:35:42.708Z,98430.00
2022-11-28T03:38:23.451Z,98423.00
2022-11-28T03:40:58.928Z,98420.00
2022-11-28T03:43:40.852Z,98415.00
2022-11-28T03:46:16.406Z,98411.00
2022-11-28T03:48:51.387Z,98415.00
2022-11-28T03:51:31.829Z,98409.00
2022-11-28T03:54:11.325Z,98404.00
2022-11-28T03:57:19.681Z,98394.00
2022-11-28T03:59:54.182Z,98389.00
2022-11-28T04:02:39.955Z,98397.00
2022-11-28T04:05:19.745Z,98395.00
2022-11-28T04:08:12.094Z,98391.00
2022-11-28T04:10:56.286Z,98389.00
2022-11-28T04:13:39.873Z,98390.00
2022-11-28T04:16:19.534Z,98388.00
2022-11-28T04:19:05.835Z,98399.00
2022-11-28T04:22:14.615Z,98400.00
2022-11-28T04:24:55.454Z,98394.00
2022-11-28T04:27:38.068Z,98405.00
2022-11-28T04:30:10.775Z,98420.00
2022-11-28T04:32:58.907Z,98402.00
2022-11-28T04:35:46.948Z,98405.00
2022-11-28T04:38:19.431Z,98397.00
2022-11-28T04:41:00.877Z,98392.00
2022-11-28T04:43:45.020Z,98404.00
2022-11-28T04:46:26.944Z,98379.00
2022-11-28T04:48:58.897Z,98387.00
2022-11-28T04:52:15.361Z,98389.00
2022-11-28T04:55:01.101Z,98389.00
2022-11-28T04:57:43.214Z,98383.00
2022-11-28T05:00:19.075Z,98377.00
2022-11-28T05:02:53.506Z,98379.00
2022-11-28T05:05:26.453Z,98377.00
2022-11-28T05:07:58.902Z,98379.00
2022-11-28T05:10:30.648Z,98380.00
2022-11-28T05:13:01.881Z,98377.00
2022-11-28T05:15:32.874Z,98363.00
2022-11-28T05:18:04.053Z,98385.00
2022-11-28T05:20:38.718Z,98369.00
2022-11-28T05:23:09.591Z,98375.00
2022-11-28T05:25:40.478Z,98373.00
2022-11-28T05:28:11.334Z,98380.00
2022-11-28T05:30:42.187Z,98382.00
2022-11-28T05:33:13.042Z,98378.00
2022-11-28T05:35:43.881Z,98380.00
2022-11-28T05:38:14.752Z,98385.00
2022-11-28T05:40:45.713Z,98384.00
2022-11-28T05:43:16.595Z,98391.00
2022-11-28T05:45:47.499Z,98403.00
2022-11-28T05:48:18.556Z,98394.00
2022-11-28T05:50:52.545Z,98396.00
2022-11-28T05:53:23.411Z,98399.00
2022-11-28T05:55:54.288Z,98397.00
2022-11-28T05:58:25.212Z,98397.00
2022-11-28T06:00:56.101Z,98405.00
2022-11-28T06:03:26.997Z,98395.00
2022-11-28T06:05:57.850Z,98401.00
2022-11-28T06:08:28.713Z,98403.00
2022-11-28T06:11:00.326Z,98389.00
2022-11-28T06:13:31.300Z,98389.00
2022-11-28T06:16:02.956Z,98393.00
2022-11-28T06:18:33.887Z,98400.00
2022-11-28T06:21:07.250Z,98409.00
2022-11-28T06:23:39.381Z,98400.00
2022-11-28T06:26:18.119Z,98396.00
2022-11-28T06:28:49.316Z,98400.00
2022-11-28T06:31:28.250Z,98395.00
2022-11-28T06:33:59.815Z,98402.00
2022-11-28T06:36:30.980Z,98402.00
2022-11-28T06:39:01.909Z,98402.00
2022-11-28T06:41:32.809Z,98394.00
2022-11-28T06:44:03.840Z,98388.00
2022-11-28T06:46:34.695Z,98403.00
2022-11-28T06:49:06.362Z,98400.00
2022-11-28T06:51:37.652Z,98418.00
2022-11-28T06:54:09.196Z,98399.00
2022-11-28T06:56:41.810Z,98402.00
2022-11-28T06:59:13.151Z,98407.00
2022-11-28T07:01:47.155Z,98398.00
2022-11-28T07:04:18.106Z,98395.00
2022-11-28T07:06:49.006Z,98397.00
2022-11-28T07:09:19.894Z,98401.00
2022-11-28T07:11:50.865Z,98405.00
2022-11-28T07:14:21.997Z,98393.00
2022-11-28T07:16:53.035Z,98398.00
2022-11-28T07:19:23.907Z,98400.00
2022-11-28T07:21:54.761Z,98398.00
2022-11-28T07:24:25.794Z,98407.00
2022-11-28T07:26:56.865Z,98410.00
2022-11-28T07:29:35.706Z,98421.00
2022-11-28T07:32:08.038Z,98422.00
2022-11-28T07:34:39.189Z,98442.00
2022-11-28T07:37:10.202Z,98423.00
2022-11-28T07:39:42.597Z,98429.00
2022-11-28T07:42:13.881Z,98437.00
2022-11-28T07:44:48.462Z,98426.00
2022-11-28T07:47:19.334Z,98417.00
2022-11-28T07:49:50.244Z,98422.00
2022-11-28T07:52:21.297Z,98418.00
2022-11-28T07:54:52.220Z,98420.00
2022-11-28T07:57:23.159Z,98415.00
2022-11-28T07:59:54.092Z,98415.00
2022-11-28T08:02:27.029Z,98417.00
2022-11-28T08:04:58.451Z,98415.00
2022-11-28T08:07:29.423Z,98406.00
2022-11-28T08:10:00.364Z,98414.00
2022-11-28T08:12:31.501Z,98414.00
2022-11-28T08:15:02.498Z,98420.00
2022-11-28T08:17:35.485Z,98412.00
2022-11-28T08:20:07.735Z,98417.00
2022-11-28T08:22:38.757Z,98420.00
2022-11-28T08:25:09.945Z,98424.00
2022-11-28T08:27:40.846Z,98445.00
2022-11-28T08:30:12.170Z,98423.00
2022-11-28T08:32:43.130Z,98418.00
2022-11-28T08:35:14.113Z,98411.00
2022-11-28T08:37:45.033Z,98412.00
2022-11-28T08:40:16.092Z,98417.00
2022-11-28T08:42:46.974Z,98439.00
2022-11-28T08:45:17.889Z,98419.00
2022-11-28T08:47:48.765Z,98401.00
2022-11-28T08:50:19.631Z,98397.00
2022-11-28T08:52:50.493Z,98397.00
2022-11-28T08:55:25.169Z,98420.00
2022-11-28T08:58:02.795Z,98398.00
2022-11-28T09:00:33.735Z,98400.00
2022-11-28T09:03:05.165Z,98396.00
2022-11-28T09:05:36.096Z,98401.00
2022-11-28T09:08:10.385Z,98405.00
2022-11-28T09:10:44.245Z,98397.00
2022-11-28T09:13:15.679Z,98415.00
2022-11-28T09:15:50.049Z,98412.00
2022-11-28T09:18:23.513Z,98427.00
2022-11-28T09:21:15.114Z,98404.00
2022-11-28T09:23:49.058Z,98411.00
2022-11-28T09:26:24.224Z,98403.00
2022-11-28T09:28:55.344Z,98408.00
2022-11-28T09:31:26.569Z,98401.00
2022-11-28T09:33:57.503Z,98401.00
2022-11-28T09:36:29.075Z,98405.00
2022-11-28T09:39:01.073Z,98416.00
2022-11-28T09:42:22.301Z,98419.00
2022-11-28T09:45:06.850Z,98419.00
2022-11-28T09:47:41.019Z,98426.00
2022-11-28T09:50:23.198Z,98413.00
2022-11-28T09:53:24.663Z,98411.00
2022-11-28T09:56:22.802Z,98411.00
2022-11-28T09:59:03.559Z,98404.00
2022-11-28T10:02:13.750Z,98400.00
2022-11-28T10:05:07.437Z,98403.00
2022-11-28T10:08:01.575Z,98388.00
2022-11-28T10:11:01.772Z,98390.00
2022-11-28T10:14:08.119Z,98406.00
2022-11-28T10:17:11.952Z,98408.00
2022-11-28T10:19:59.653Z,98427.00
2022-11-28T10:22:56.473Z,98426.00
2022-11-28T10:25:41.112Z,98413.00
2022-11-28T10:28:21.433Z,98417.00
2022-11-28T10:31:12.303Z,98416.00
2022-11-28T10:33:59.642Z,98410.00
2022-11-28T10:37:19.987Z,98424.00
2022-11-28T10:39:51.358Z,98399.00
2022-11-28T10:42:54.086Z,98399.00
2022-11-28T10:45:48.628Z,98403.00
2022-11-28T10:48:39.991Z,98399.00
2022-11-28T10:51:44.202Z,98395.00
2022-11-28T10:55:08.520Z,98396.00
2022-11-28T10:57:55.422Z,98410.00
2022-11-28T11:00:26.370Z,98403.00
2022-11-28T11:03:02.379Z,98396.00
2022-11-28T11:05:37.018Z,98391.00
2022-11-28T11:08:21.895Z,98394.00
2022-11-28T11:11:27.872Z,98398.00
2022-11-28T11:14:08.364Z,98399.00
2022-11-28T11:16:56.927Z,98401.00
2022-11-28T11:19:34.773Z,98392.00
2022-11-28T11:22:21.878Z,98402.00
2022-11-28T11:25:17.039Z,98394.00
2022-11-28T11:28:03.233Z,98393.00
2022-11-28T11:30:42.496Z,98403.00
2022-11-28T11:33:17.762Z,98387.00
2022-11-28T11:35:49.688Z,98387.00
2022-11-28T11:38:23.605Z,98382.00
2022-11-28T11:40:54.545Z,98377.00
2022-11-28T11:43:35.859Z,98383.00
2022-11-28T11:46:17.345Z,98411.00
2022-11-28T11:48:53.540Z,98372.00
2022-11-28T11:51:27.355Z,98378.00
2022-11-28T11:54:13.275Z,98375.00
2022-11-28T11:56:51.275Z,98373.00
2022-11-28T11:59:39.313Z,98372.00
2022-11-28T12:02:36.909Z,98373.00
2022-11-28T12:05:14.280Z,98379.00
2022-11-28T12:08:16.904Z,98382.00
2022-11-28T12:10:57.071Z,98372.00
2022-11-28T12:13:27.948Z,98382.00
2022-11-28T12:16:45.613Z,98376.00
2022-11-28T12:20:18.644Z,98384.00
2022-11-28T12:22:58.359Z,98385.00
2022-11-28T12:25:57.796Z,98377.00
2022-11-28T12:28:43.674Z,98373.00
2022-11-28T12:31:55.980Z,98368.00
2022-11-28T12:34:51.377Z,98360.00
2022-11-28T12:38:12.541Z,98357.00
2022-11-28T12:41:22.108Z,98353.00
2022-11-28T12:44:16.631Z,98345.00
2022-11-28T12:47:06.072Z,98336.00
2022-11-28T12:50:03.192Z,98339.00
2022-11-28T12:52:52.835Z,98336.00
2022-11-28T12:55:45.961Z,98338.00
2022-11-28T12:58:26.573Z,98344.00
2022-11-28T13:01:18.434Z,98338.00
2022-11-28T13:04:33.480Z,98338.00
2022-11-28T13:07:26.210Z,98346.00
2022-11-28T13:10:03.061Z,98340.00
2022-11-28T13:13:02.958Z,98369.00
2022-11-28T13:16:04.659Z,98335.00
2022-11-28T13:18:44.893Z,98332.00
2022-11-28T13:21:47.944Z,98335.00
2022-11-28T13:24:56.391Z,98334.00
2022-11-28T13:27:54.763Z,98345.00
2022-11-28T13:30:39.592Z,98325.00
2022-11-28T13:33:19.331Z,98319.00
2022-11-28T13:35:50.612Z,98320.00
2022-11-28T13:39:11.350Z,98319.00
2022-11-28T13:45:09.689Z,98340.00
2022-11-28T13:47:40.534Z,98315.00
2022-11-28T13:50:36.444Z,98310.00
2022-11-28T13:53:07.259Z,98313.00
2022-11-28T13:56:07.337Z,98318.00
2022-11-28T13:59:16.351Z,98308.00
2022-11-28T14:01:57.815Z,98318.00
2022-11-28T14:04:30.702Z,98313.00
2022-11-28T14:07:07.468Z,98307.00
2022-11-28T14:09:52.321Z,98317.00
2022-11-28T14:12:46.160Z,98315.00
2022-11-28T14:15:28.961Z,98306.00
2022-11-28T14:18:56.878Z,98310.00
2022-11-28T14:21:42.540Z,98307.00
2022-11-28T14:25:08.015Z,98310.00
2022-11-28T14:27:48.704Z,98310.00
2022-11-28T14:30:41.803Z,98298.00
2022-11-28T14:33:35.844Z,98310.00
2022-11-28T14:36:33.805Z,98308.00
2022-11-28T14:39:33.040Z,98313.00
2022-11-28T14:42:06.895Z,98311.00
2022-11-28T14:45:03.397Z,98315.00
2022-11-28T14:47:43.105Z,98316.00
2022-11-28T14:50:13.905Z,98313.00
2022-11-28T14:52:48.643Z,98316.00
2022-11-28T14:55:21.996Z,98326.00
2022-11-28T14:57:57.329Z,98320.00
2022-11-28T15:00:47.567Z,98322.00
2022-11-28T15:03:43.129Z,98328.00
2022-11-28T15:06:17.986Z,98329.00
2022-11-28T15:09:18.058Z,98325.00
2022-11-28T15:12:11.545Z,98317.00
2022-11-28T15:14:45.613Z,98317.00
2022-11-28T15:17:23.143Z,98317.00
2022-11-28T15:19:54.894Z,98313.00
2022-11-28T15:22:35.811Z,98310.00
2022-11-28T15:25:39.732Z,98312.00
2022-11-28T15:28:18.604Z,98321.00
2022-11-28T15:30:52.760Z,98321.00
2022-11-28T15:33:26.198Z,98309.00
2022-11-28T15:36:02.358Z,98335.00
2022-11-28T15:38:33.335Z,98330.00
2022-11-28T15:41:04.517Z,98322.00
2022-11-28T15:43:39.531Z,98326.00
2022-11-28T15:46:20.694Z,98323.00
2022-11-28T15:48:53.078Z,98327.00
2022-11-28T15:51:32.634Z,98329.00
2022-11-28T15:54:24.919Z,98329.00
2022-11-28T15:57:00.465Z,98332.00
2022-11-28T15:59:31.742Z,98318.00
2022-11-28T16:02:16.074Z,98329.00
2022-11-28T16:04:47.269Z,98328.00
2022-11-28T16:07:18.298Z,98329.00
2022-11-28T16:10:04.687Z,98328.00
2022-11-28T16:12:35.719Z,98329.00
2022-11-28T16:15:07.030Z,98329.00
2022-11-28T16:17:39.860Z,98324.00
2022-11-28T16:20:34.093Z,98330.00
2022-11-28T16:23:19.855Z,98330.00
2022-11-28T16:26:22.354Z,98337.00
2022-11-28T16:29:09.894Z,98340.00
2022-11-28T16:31:43.108Z,98336.00
2022-11-28T16:34:15.126Z,98344.00
2022-11-28T16:36:48.069Z,98328.00
2022-11-28T16:39:19.203Z,98362.00
2022-11-28T16:42:14.095Z,98335.00
2022-11-28T16:44:45.091Z,98334.00
2022-11-28T16:47:31.138Z,98338.00
2022-11-28T16:50:24.695Z,98338.00
2022-11-28T16:52:59.345Z,98348.00
2022-11-28T16:55:30.167Z,98345.00
2022-11-28T16:58:21.108Z,98339.00
2022-11-28T17:01:02.684Z,98337.00
2022-11-28T17:03:47.124Z,98344.00
2022-11-28T17:06:28.690Z,98340.00
2022-11-28T17:09:18.350Z,98338.00
2022-11-28T17:12:12.135Z,98334.00
2022-11-28T17:14:44.373Z,98330.00
2022-11-28T17:17:16.755Z,98334.00
2022-11-28T17:19:47.599Z,98326.00
2022-11-28T17:22:23.304Z,98326.00
2022-11-28T17:25:01.514Z,98334.00
2022-11-28T17:27:32.556Z,98329.00
2022-11-28T17:30:03.861Z,98331.00
2022-11-28T17:32:34.776Z,98325.00
2022-11-28T17:35:17.800Z,98333.00
2022-11-28T17:37:48.975Z,98320.00
2022-11-28T17:40:36.610Z,98338.00
2022-11-28T17:43:18.192Z,98316.00
2022-11-28T17:45:50.734Z,98325.00
2022-11-28T17:48:21.702Z,98322.00
2022-11-28T17:50:55.964Z,98322.00
2022-11-28T17:53:26.900Z,98326.00
2022-11-28T17:55:59.852Z,98319.00
2022-11-28T17:58:30.848Z,98314.00
2022-11-28T18:01:01.879Z,98324.00
2022-11-28T18:03:32.883Z,98322.00
2022-11-28T18:06:05.327Z,98332.00
2022-11-28T18:08:36.274Z,98330.00
2022-11-28T18:11:10.078Z,98333.00
2022-11-28T18:13:42.548Z,98337.00
2022-11-28T18:16:17.281Z,98333.00
2022-11-28T18:18:48.926Z,98335.00
2022-11-28T18:21:20.353Z,98319.00
2022-11-28T18:23:51.325Z,98338.00
2022-11-28T18:26:25.026Z,98343.00
2022-11-28T18:28:56.351Z,98331.00
2022-11-28T18:31:29.886Z,98331.00
2022-11-28T18:34:04.470Z,98338.00
2022-11-28T18:36:38.031Z,98341.00
2022-11-28T18:39:13.059Z,98330.00
2022-11-28T18:41:44.134Z,98337.00
2022-11-28T18:44:15.118Z,98336.00
2022-11-28T18:46:46.067Z,98342.00
2022-11-28T18:49:19.071Z,98373.00
2022-11-28T18:51:50.041Z,98353.00
2022-11-28T18:54:21.722Z,98352.00
2022-11-28T18:56:52.776Z,98348.00
2022-11-28T18:59:23.904Z,98351.00
2022-11-28T19:01:54.832Z,98350.00
2022-11-28T19:04:25.844Z,98343.00
2022-11-28T19:06:56.792Z,98346.00
2022-11-28T19:09:27.660Z,98352.00
2022-11-28T19:11:58.562Z,98347.00
2022-11-28T19:14:29.616Z,98352.00
2022-11-28T19:17:02.057Z,98350.00
2022-11-28T19:19:33.168Z,98350.00
2022-11-28T19:22:04.238Z,98350.00
2022-11-28T19:24:37.815Z,98350.00
2022-11-28T19:27:14.012Z,98358.00
2022-11-28T19:29:45.813Z,98378.00
2022-11-28T19:32:18.075Z,98343.00
2022-11-28T19:34:52.276Z,98355.00
2022-11-28T19:37:23.285Z,98350.00
2022-11-28T19:39:55.665Z,98351.00
2022-11-28T19:42:29.702Z,98356.00
2022-11-28T19:45:00.611Z,98344.00
2022-11-28T19:47:31.493Z,98343.00
2022-11-28T19:50:02.634Z,98350.00
2022-11-28T19:52:33.553Z,98349.00
2022-11-28T19:55:04.826Z,98349.00
2022-11-28T19:57:37.211Z,98352.00
2022-11-28T20:00:09.075Z,98348.00
2022-11-28T20:02:40.150Z,98356.00
2022-11-28T20:05:11.162Z,98359.00
2022-11-28T20:07:42.108Z,98362.00
2022-11-28T20:10:13.242Z,98361.00
2022-11-28T20:12:44.120Z,98360.00
2022-11-28T20:15:18.355Z,98369.00
2022-11-28T20:17:49.878Z,98356.00
2022-11-28T20:20:20.771Z,98360.00
2022-11-28T20:22:51.725Z,98359.00
2022-11-28T20:25:22.657Z,98366.00
2022-11-28T20:27:54.276Z,98361.00
2022-11-28T20:30:25.202Z,98364.00
2022-11-28T20:32:56.090Z,98365.00
2022-11-28T20:35:27.562Z,98371.00
2022-11-28T20:37:58.433Z,98373.00
2022-11-28T20:40:29.289Z,98368.00
2022-11-28T20:43:02.490Z,98362.00
2022-11-28T20:45:33.399Z,98374.00
2022-11-28T20:48:04.571Z,98371.00
2022-11-28T20:50:35.440Z,98381.00
2022-11-28T20:53:06.325Z,98371.00
2022-11-28T20:55:37.220Z,98376.00
2022-11-28T20:58:08.114Z,98372.00
2022-11-28T21:00:38.968Z,98376.00
2022-11-28T21:03:10.341Z,98371.00
2022-11-28T21:05:41.312Z,98371.00
2022-11-28T21:08:12.241Z,98371.00
2022-11-28T21:10:43.756Z,98367.00
2022-11-28T21:13:14.701Z,98359.00
2022-11-28T21:15:46.112Z,98358.00
2022-11-28T21:18:17.257Z,98365.00
2022-11-28T21:20:48.380Z,98367.00
2022-11-28T21:23:19.263Z,98363.00
2022-11-28T21:25:50.137Z,98375.00
2022-11-28T21:28:21.029Z,98374.00
2022-11-28T21:30:51.857Z,98381.00
2022-11-28T21:33:22.766Z,98386.00
2022-11-28T21:35:53.670Z,98374.00
2022-11-28T21:38:24.557Z,98379.00
2022-11-28T21:40:55.586Z,98376.00
2022-11-28T21:43:29.252Z,98378.00
2022-11-28T21:46:04.904Z,98380.00
2022-11-28T21:48:37.094Z,98376.00
2022-11-28T21:51:15.405Z,98375.00
2022-11-28T21:53:47.118Z,98386.00
2022-11-28T21:56:18.668Z,98375.00
2022-11-28T21:58:49.762Z,98383.00
2022-11-28T22:01:21.363Z,98380.00
2022-11-28T22:03:53.565Z,98375.00
2022-11-28T22:06:26.996Z,98375.00
2022-11-28T22:08:57.914Z,98379.00
2022-11-28T22:11:28.887Z,98388.00
2022-11-28T22:13:59.943Z,98383.00
2022-11-28T22:16:30.897Z,98382.00
2022-11-28T22:19:01.997Z,98384.00
2022-11-28T22:24:24.191Z,98384.00
2022-11-28T22:26:55.271Z,98392.00
2022-11-28T22:29:26.178Z,98379.00
2022-11-28T22:31:57.129Z,98381.00
2022-11-28T22:34:28.062Z,98389.00
2022-11-28T22:36:58.977Z,98385.00
2022-11-28T22:39:30.030Z,98389.00
2022-11-28T22:42:01.220Z,98391.00
2022-11-28T22:44:32.166Z,98396.00
2022-11-28T22:47:03.064Z,98393.00
2022-11-28T22:49:33.905Z,98386.00
2022-11-28T22:52:05.069Z,98387.00
2022-11-28T22:54:35.910Z,98388.00
2022-11-28T22:57:06.805Z,98397.00
2022-11-28T22:59:38.632Z,98392.00
2022-11-28T23:02:09.888Z,98394.00
2022-11-28T23:04:41.054Z,98388.00
2022-11-28T23:07:12.057Z,98398.00
2022-11-28T23:09:42.925Z,98392.00
2022-11-28T23:12:13.776Z,98395.00
2022-11-28T23:14:45.193Z,98395.00
2022-11-28T23:17:16.230Z,98392.00
2022-11-28T23:19:47.407Z,98394.00
2022-11-28T23:22:18.272Z,98394.00
2022-11-28T23:24:49.109Z,98394.00
2022-11-28T23:27:20.032Z,98389.00
2022-11-28T23:29:50.898Z,98395.00
2022-11-28T23:32:21.810Z,98397.00
2022-11-28T23:34:52.680Z,98398.00
2022-11-28T23:37:23.543Z,98396.00
2022-11-28T23:39:54.405Z,98399.00
2022-11-28T23:42:25.260Z,98397.00
2022-11-28T23:44:56.099Z,98399.00
2022-11-28T23:47:26.976Z,98403.00
2022-11-28T23:49:57.840Z,98397.00
2022-11-28T23:52:28.693Z,98399.00
2022-11-28T23:54:59.573Z,98391.00
2022-11-28T23:57:30.517Z,98399.00
